createdAt,value
2023-05-14T00:01:09.774Z,7.14
2023-05-14T00:03:40.063Z,7.15
2023-05-14T00:06:09.682Z,7.16
2023-05-14T00:08:38.020Z,7.20
2023-05-14T00:11:09.114Z,7.22
2023-05-14T00:13:37.664Z,7.24
2023-05-14T00:16:06.985Z,7.21
2023-05-14T00:18:35.535Z,7.18
2023-05-14T00:21:04.129Z,7.14
2023-05-14T00:23:32.318Z,7.11
2023-05-14T00:26:00.781Z,7.10
2023-05-14T00:28:29.025Z,7.12
2023-05-14T00:30:57.454Z,7.17
2023-05-14T00:33:25.802Z,7.23
2023-05-14T00:35:54.009Z,7.27
2023-05-14T00:38:24.214Z,7.30
2023-05-14T00:40:52.590Z,7.32
2023-05-14T00:43:22.848Z,7.35
2023-05-14T00:45:52.852Z,7.39
2023-05-14T00:48:24.167Z,7.42
2023-05-14T00:50:52.779Z,7.46
2023-05-14T00:53:21.437Z,7.49
2023-05-14T00:55:50.434Z,7.51
2023-05-14T00:58:19.571Z,7.52
2023-05-14T01:00:48.280Z,7.51
2023-05-14T01:03:16.801Z,7.52
2023-05-14T01:06:13.725Z,7.53
2023-05-14T01:09:10.091Z,7.55
2023-05-14T01:11:47.173Z,7.55
2023-05-14T01:14:24.706Z,7.55
2023-05-14T01:16:58.683Z,7.54
2023-05-14T01:19:46.773Z,7.55
2023-05-14T01:22:15.004Z,7.58
2023-05-14T01:24:43.611Z,7.59
2023-05-14T01:27:17.907Z,7.59
2023-05-14T01:29:53.365Z,7.58
2023-05-14T01:32:24.655Z,7.55
2023-05-14T01:34:56.124Z,7.54
2023-05-14T01:37:25.772Z,7.53
2023-05-14T01:39:56.584Z,7.51
2023-05-14T01:42:26.463Z,7.49
2023-05-14T01:44:55.763Z,7.47
2023-05-14T01:47:24.035Z,7.43
2023-05-14T01:49:52.390Z,7.39
2023-05-14T01:52:21.386Z,7.34
2023-05-14T01:54:49.703Z,7.28
2023-05-14T01:57:18.108Z,7.22
2023-05-14T01:59:46.553Z,7.16
2023-05-14T02:02:14.882Z,7.09
2023-05-14T02:04:43.623Z,7.03
2023-05-14T02:07:12.676Z,6.94
2023-05-14T02:09:41.253Z,6.85
2023-05-14T02:12:09.893Z,6.81
2023-05-14T02:14:38.288Z,6.82
2023-05-14T02:17:06.514Z,6.84
2023-05-14T02:19:34.753Z,6.86
2023-05-14T02:22:03.224Z,6.88
2023-05-14T02:24:31.489Z,6.89
2023-05-14T02:27:01.216Z,6.92
2023-05-14T02:29:29.865Z,6.95
2023-05-14T02:31:58.369Z,6.97
2023-05-14T02:34:27.193Z,6.97
2023-05-14T02:36:56.131Z,6.96
2023-05-14T02:39:24.554Z,6.95
2023-05-14T02:41:52.692Z,6.96
2023-05-14T02:44:20.986Z,6.97
2023-05-14T02:46:49.256Z,7.00
2023-05-14T02:49:17.572Z,7.02
2023-05-14T02:51:45.903Z,7.05
2023-05-14T02:54:16.553Z,7.05
2023-05-14T02:56:44.808Z,7.03
2023-05-14T02:59:13.300Z,7.00
2023-05-14T03:01:42.559Z,6.96
2023-05-14T03:04:11.459Z,6.91
2023-05-14T03:06:39.846Z,6.84
2023-05-14T03:09:08.147Z,6.78
2023-05-14T03:11:36.727Z,6.72
2023-05-14T03:14:04.995Z,6.68
2023-05-14T03:16:33.247Z,6.64
2023-05-14T03:19:01.653Z,6.57
2023-05-14T03:21:31.918Z,6.55
2023-05-14T03:24:03.157Z,6.53
2023-05-14T03:26:31.541Z,6.52
2023-05-14T03:28:59.760Z,6.52
2023-05-14T03:31:28.207Z,6.55
2023-05-14T03:33:58.060Z,6.56
2023-05-14T03:36:26.399Z,6.60
2023-05-14T03:38:54.627Z,6.61
2023-05-14T03:41:23.129Z,6.59
2023-05-14T03:43:51.578Z,6.57
2023-05-14T03:46:19.831Z,6.62
2023-05-14T03:48:48.234Z,6.71
2023-05-14T03:51:16.777Z,6.83
2023-05-14T03:53:47.955Z,6.95
2023-05-14T03:56:16.312Z,7.05
2023-05-14T03:58:44.604Z,7.14
2023-05-14T04:01:12.793Z,7.23
2023-05-14T04:03:41.635Z,7.33
2023-05-14T04:06:10.140Z,7.43
2023-05-14T04:08:38.415Z,7.52
2023-05-14T04:11:07.456Z,7.60
2023-05-14T04:13:35.725Z,7.67
2023-05-14T04:16:04.230Z,7.74
2023-05-14T04:18:35.443Z,7.79
2023-05-14T04:21:03.996Z,7.87
2023-05-14T04:23:32.268Z,7.96
2023-05-14T04:26:00.616Z,8.05
2023-05-14T04:28:28.845Z,8.15
2023-05-14T04:30:57.156Z,8.26
2023-05-14T04:33:25.392Z,8.37
2023-05-14T04:35:53.662Z,8.51
2023-05-14T04:38:21.965Z,8.67
2023-05-14T04:40:50.357Z,8.84
2023-05-14T04:43:18.645Z,9.00
2023-05-14T04:45:47.007Z,9.17
2023-05-14T04:48:15.403Z,9.35
2023-05-14T04:50:44.352Z,9.53
2023-05-14T04:53:12.775Z,9.66
2023-05-14T04:55:41.472Z,9.79
2023-05-14T04:58:09.790Z,9.91
2023-05-14T05:00:38.439Z,10.04
2023-05-14T05:03:07.009Z,10.17
2023-05-14T05:05:35.540Z,10.30
2023-05-14T05:08:03.981Z,10.40
2023-05-14T05:10:32.354Z,10.52
2023-05-14T05:13:00.636Z,10.62
2023-05-14T05:15:28.945Z,10.69
2023-05-14T05:17:57.264Z,10.80
2023-05-14T05:20:28.154Z,10.88
2023-05-14T05:22:57.225Z,10.97
2023-05-14T05:25:25.493Z,11.05
2023-05-14T05:27:53.739Z,11.17
2023-05-14T05:30:22.258Z,11.31
2023-05-14T05:32:50.975Z,11.45
2023-05-14T05:35:19.361Z,11.53
2023-05-14T05:37:47.635Z,11.64
2023-05-14T05:40:16.017Z,11.77
2023-05-14T05:42:44.334Z,11.90
2023-05-14T05:45:12.562Z,12.04
2023-05-14T05:47:40.927Z,12.21
2023-05-14T05:50:11.224Z,12.40
2023-05-14T05:52:39.671Z,12.56
2023-05-14T05:55:08.388Z,12.68
2023-05-14T05:57:36.725Z,12.79
2023-05-14T06:00:16.411Z,12.90
2023-05-14T06:02:44.730Z,13.05
2023-05-14T06:05:13.461Z,13.23
2023-05-14T06:07:41.777Z,13.33
2023-05-14T06:10:10.385Z,13.43
2023-05-14T06:12:38.665Z,13.50
2023-05-14T06:15:07.455Z,13.59
2023-05-14T06:17:35.766Z,13.68
2023-05-14T06:20:09.416Z,13.81
2023-05-14T06:22:38.092Z,13.97
2023-05-14T06:25:07.008Z,14.16
2023-05-14T06:27:35.366Z,14.39
2023-05-14T06:30:03.835Z,14.58
2023-05-14T06:32:32.217Z,14.72
2023-05-14T06:35:00.453Z,14.81
2023-05-14T06:37:28.696Z,14.90
2023-05-14T06:39:58.050Z,15.04
2023-05-14T06:42:26.657Z,15.15
2023-05-14T06:44:54.983Z,15.17
2023-05-14T06:47:23.433Z,15.14
2023-05-14T06:49:56.013Z,15.20
2023-05-14T06:52:25.765Z,15.29
2023-05-14T06:54:54.038Z,15.44
2023-05-14T06:57:22.326Z,15.59
2023-05-14T06:59:50.686Z,15.82
2023-05-14T07:02:18.970Z,16.01
2023-05-14T07:04:47.326Z,16.10
2023-05-14T07:07:18.351Z,16.11
2023-05-14T07:09:47.065Z,16.12
2023-05-14T07:12:15.335Z,16.17
2023-05-14T07:14:43.662Z,16.24
2023-05-14T07:17:12.040Z,16.22
2023-05-14T07:19:41.024Z,16.21
2023-05-14T07:22:09.400Z,16.30
2023-05-14T07:24:37.674Z,16.41
2023-05-14T07:27:06.416Z,16.60
2023-05-14T07:29:35.208Z,16.74
2023-05-14T07:32:03.766Z,16.83
2023-05-14T07:34:32.120Z,16.89
2023-05-14T07:37:01.343Z,17.02
2023-05-14T07:39:29.647Z,17.13
2023-05-14T07:41:58.078Z,17.27
2023-05-14T07:44:26.387Z,17.52
2023-05-14T07:46:54.620Z,17.74
2023-05-14T07:49:23.067Z,17.84
2023-05-14T07:51:53.905Z,17.91
2023-05-14T07:54:24.932Z,18.00
2023-05-14T07:56:53.376Z,18.14
2023-05-14T07:59:21.860Z,18.28
2023-05-14T08:01:50.283Z,18.45
2023-05-14T08:04:18.822Z,18.61
2023-05-14T08:06:51.023Z,18.70
2023-05-14T08:09:21.047Z,18.76
2023-05-14T08:11:49.752Z,18.82
2023-05-14T08:14:18.306Z,18.88
2023-05-14T08:16:46.763Z,18.94
2023-05-14T08:19:16.731Z,19.02
2023-05-14T08:21:45.416Z,19.08
2023-05-14T08:24:15.167Z,19.18
2023-05-14T08:26:46.401Z,19.32
2023-05-14T08:29:16.689Z,19.41
2023-05-14T08:31:49.917Z,19.55
2023-05-14T08:34:19.222Z,19.67
2023-05-14T08:36:49.855Z,19.75
2023-05-14T08:39:25.735Z,19.86
2023-05-14T08:41:55.747Z,19.94
2023-05-14T08:44:38.889Z,20.04
2023-05-14T08:47:09.098Z,20.11
2023-05-14T08:49:45.056Z,20.28
2023-05-14T08:52:13.519Z,20.48
2023-05-14T08:54:42.140Z,20.62
2023-05-14T08:57:13.120Z,20.84
2023-05-14T08:59:43.414Z,20.82
2023-05-14T09:05:04.326Z,21.03
2023-05-14T09:07:32.878Z,21.08
2023-05-14T09:10:02.817Z,21.26
2023-05-14T09:12:31.465Z,21.40
2023-05-14T09:14:59.794Z,21.48
2023-05-14T09:17:28.317Z,21.48
2023-05-14T09:19:56.645Z,21.51
2023-05-14T09:22:25.024Z,21.43
2023-05-14T09:25:14.715Z,21.40
2023-05-14T09:27:49.870Z,21.49
2023-05-14T09:30:18.252Z,21.63
2023-05-14T09:32:50.038Z,21.77
2023-05-14T09:35:25.570Z,21.97
2023-05-14T09:37:54.892Z,22.10
2023-05-14T09:40:24.586Z,22.20
2023-05-14T09:42:53.476Z,22.29
2023-05-14T09:45:22.039Z,22.43
2023-05-14T09:47:51.709Z,22.57
2023-05-14T09:50:20.020Z,22.71
2023-05-14T09:52:48.382Z,22.81
2023-05-14T09:55:16.800Z,22.83
2023-05-14T09:57:45.253Z,22.88
2023-05-14T10:00:14.315Z,22.85
2023-05-14T10:02:45.209Z,22.86
2023-05-14T10:05:16.124Z,22.95
2023-05-14T10:07:48.142Z,23.07
2023-05-14T10:10:19.880Z,23.16
2023-05-14T10:13:04.347Z,23.19
2023-05-14T10:15:49.291Z,23.05
2023-05-14T10:18:20.264Z,22.85
2023-05-14T10:20:57.229Z,22.86
2023-05-14T10:23:26.510Z,22.95
2023-05-14T10:25:55.111Z,23.12
2023-05-14T10:28:23.656Z,23.21
2023-05-14T10:30:52.147Z,23.33
2023-05-14T10:33:21.100Z,23.44
2023-05-14T10:35:57.714Z,23.38
2023-05-14T10:38:28.090Z,23.52
2023-05-14T10:40:59.045Z,23.56
2023-05-14T10:43:30.813Z,23.58
2023-05-14T10:46:00.611Z,23.67
2023-05-14T10:48:29.253Z,23.62
2023-05-14T10:50:57.927Z,23.68
2023-05-14T10:53:38.169Z,23.90
2023-05-14T10:56:14.445Z,24.10
2023-05-14T10:58:45.885Z,24.39
2023-05-14T11:01:14.463Z,24.67
2023-05-14T11:03:45.969Z,24.89
2023-05-14T11:06:15.993Z,25.02
2023-05-14T11:08:46.690Z,25.19
2023-05-14T11:11:15.274Z,25.34
2023-05-14T11:13:44.824Z,25.28
2023-05-14T11:16:22.764Z,25.30
2023-05-14T11:19:03.913Z,25.10
2023-05-14T11:21:34.932Z,24.85
2023-05-14T11:24:05.442Z,24.50
2023-05-14T11:26:34.403Z,24.16
2023-05-14T11:29:02.911Z,23.92
2023-05-14T11:31:31.506Z,23.87
2023-05-14T11:34:01.104Z,23.81
2023-05-14T11:36:29.305Z,23.78
2023-05-14T11:38:57.659Z,23.82
2023-05-14T11:41:28.123Z,23.93
2023-05-14T11:43:57.044Z,24.07
2023-05-14T11:46:27.694Z,24.19
2023-05-14T11:48:55.967Z,24.28
2023-05-14T11:51:24.690Z,24.49
2023-05-14T11:53:54.304Z,24.52
2023-05-14T11:56:22.637Z,24.46
2023-05-14T11:58:57.957Z,24.42
2023-05-14T12:01:26.346Z,24.30
2023-05-14T12:03:54.727Z,24.13
2023-05-14T12:06:31.742Z,24.04
2023-05-14T12:09:01.745Z,24.01
2023-05-14T12:11:33.464Z,24.04
2023-05-14T12:14:01.996Z,24.11
2023-05-14T12:16:34.414Z,24.09
2023-05-14T12:19:03.971Z,23.98
2023-05-14T12:21:32.552Z,23.92
2023-05-14T12:24:01.416Z,23.95
2023-05-14T12:26:34.215Z,23.99
2023-05-14T12:29:03.929Z,23.99
2023-05-14T12:31:34.094Z,23.94
2023-05-14T12:34:04.263Z,23.90
2023-05-14T12:36:32.716Z,23.90
2023-05-14T12:39:04.111Z,23.85
2023-05-14T12:41:33.310Z,23.82
2023-05-14T12:44:03.512Z,23.78
2023-05-14T12:46:33.095Z,23.81
2023-05-14T12:49:01.507Z,23.91
2023-05-14T12:51:30.122Z,24.01
2023-05-14T12:53:58.556Z,24.11
2023-05-14T12:56:28.461Z,24.11
2023-05-14T12:58:56.851Z,23.97
2023-05-14T13:01:25.227Z,23.74
2023-05-14T13:03:53.550Z,23.61
2023-05-14T13:06:21.953Z,23.63
2023-05-14T13:08:50.347Z,23.65
2023-05-14T13:11:18.704Z,23.71
2023-05-14T13:13:46.970Z,23.78
2023-05-14T13:16:17.041Z,23.85
2023-05-14T13:18:45.466Z,23.84
2023-05-14T13:21:13.764Z,23.68
2023-05-14T13:23:42.488Z,23.65
2023-05-14T13:26:10.922Z,23.64
2023-05-14T13:28:39.402Z,23.58
2023-05-14T13:31:10.118Z,23.40
2023-05-14T13:33:42.020Z,23.29
2023-05-14T13:36:11.886Z,23.24
2023-05-14T13:38:40.267Z,23.26
2023-05-14T13:41:08.794Z,23.37
2023-05-14T13:43:37.360Z,23.46
2023-05-14T13:46:06.915Z,23.54
2023-05-14T13:48:37.313Z,23.66
2023-05-14T13:51:05.761Z,23.79
2023-05-14T13:53:34.182Z,23.83
2023-05-14T13:56:02.621Z,23.75
2023-05-14T13:58:31.001Z,23.62
2023-05-14T14:00:59.283Z,23.45
2023-05-14T14:03:27.704Z,23.37
2023-05-14T14:06:02.253Z,23.29
2023-05-14T14:08:31.194Z,23.16
2023-05-14T14:10:59.616Z,23.08
2023-05-14T14:13:29.658Z,23.01
2023-05-14T14:15:58.093Z,22.97
2023-05-14T14:18:27.040Z,22.92
2023-05-14T14:20:55.641Z,22.83
2023-05-14T14:23:23.989Z,22.73
2023-05-14T14:25:52.249Z,22.65
2023-05-14T14:28:20.720Z,22.55
2023-05-14T14:30:49.075Z,22.40
2023-05-14T14:33:17.293Z,22.31
2023-05-14T14:35:46.222Z,22.29
2023-05-14T14:38:14.621Z,22.29
2023-05-14T14:40:42.906Z,22.30
2023-05-14T14:43:12.364Z,22.29
2023-05-14T14:45:40.965Z,22.26
2023-05-14T14:48:24.750Z,22.18
2023-05-14T14:50:54.484Z,22.09
2023-05-14T14:53:23.945Z,21.97
2023-05-14T14:55:53.050Z,21.89
2023-05-14T14:58:21.953Z,21.81
2023-05-14T15:00:57.662Z,21.76
2023-05-14T15:03:26.835Z,21.72
2023-05-14T15:05:58.085Z,21.66
2023-05-14T15:08:28.071Z,21.59
2023-05-14T15:10:56.894Z,21.52
2023-05-14T15:13:25.850Z,21.45
2023-05-14T15:15:54.722Z,21.41
2023-05-14T15:18:23.099Z,21.36
2023-05-14T15:20:52.176Z,21.31
2023-05-14T15:23:20.610Z,21.24
2023-05-14T15:25:49.543Z,21.21
2023-05-14T15:28:17.929Z,21.18
2023-05-14T15:30:48.031Z,21.15
2023-05-14T15:33:19.416Z,21.06
2023-05-14T15:35:48.116Z,20.98
2023-05-14T15:38:16.499Z,20.92
2023-05-14T15:40:44.841Z,20.86
2023-05-14T15:43:13.336Z,20.80
2023-05-14T15:45:44.530Z,20.72
2023-05-14T15:48:12.803Z,20.62
2023-05-14T15:50:42.025Z,20.54
2023-05-14T15:53:10.313Z,20.45
2023-05-14T15:55:38.686Z,20.37
2023-05-14T15:58:07.009Z,20.30
2023-05-14T16:00:35.373Z,20.21
2023-05-14T16:03:03.798Z,20.15
2023-05-14T16:05:32.326Z,20.11
2023-05-14T16:08:00.766Z,20.07
2023-05-14T16:10:29.358Z,20.03
2023-05-14T16:12:57.574Z,20.01
2023-05-14T16:15:25.952Z,19.98
2023-05-14T16:17:54.270Z,19.95
2023-05-14T16:20:23.371Z,19.91
2023-05-14T16:22:51.972Z,19.86
2023-05-14T16:25:20.376Z,19.82
2023-05-14T16:27:49.020Z,19.77
2023-05-14T16:30:17.218Z,19.71
2023-05-14T16:32:49.487Z,19.66
2023-05-14T16:35:18.016Z,19.60
2023-05-14T16:37:46.386Z,19.54
2023-05-14T16:40:16.224Z,19.48
2023-05-14T16:42:45.998Z,19.42
2023-05-14T16:45:15.493Z,19.37
2023-05-14T16:47:43.783Z,19.29
2023-05-14T16:50:12.037Z,19.20
2023-05-14T16:52:40.423Z,19.12
2023-05-14T16:55:09.199Z,19.04
2023-05-14T16:57:37.475Z,18.96
2023-05-14T17:00:06.629Z,18.86
2023-05-14T17:02:34.892Z,18.77
2023-05-14T17:05:04.137Z,18.69
2023-05-14T17:07:32.531Z,18.63
2023-05-14T17:10:00.978Z,18.55
2023-05-14T17:12:29.598Z,18.50
2023-05-14T17:14:58.496Z,18.46
2023-05-14T17:17:26.733Z,18.41
2023-05-14T17:19:54.973Z,18.32
2023-05-14T17:22:23.275Z,18.21
2023-05-14T17:24:51.607Z,18.13
2023-05-14T17:27:19.808Z,18.05
2023-05-14T17:29:51.210Z,17.98
2023-05-14T17:32:19.517Z,17.91
2023-05-14T17:34:47.776Z,17.84
2023-05-14T17:37:16.237Z,17.78
2023-05-14T17:39:44.590Z,17.74
2023-05-14T17:42:12.877Z,17.69
2023-05-14T17:44:41.135Z,17.60
2023-05-14T17:47:09.840Z,17.42
2023-05-14T17:49:38.113Z,17.19
2023-05-14T17:52:06.868Z,16.98
2023-05-14T17:54:35.160Z,16.81
2023-05-14T17:57:03.519Z,16.69
2023-05-14T17:59:31.713Z,16.58
2023-05-14T18:01:59.920Z,16.44
2023-05-14T18:04:28.304Z,16.29
2023-05-14T18:06:56.630Z,16.17
2023-05-14T18:09:24.965Z,16.06
2023-05-14T18:11:54.719Z,15.95
2023-05-14T18:14:25.303Z,15.84
2023-05-14T18:16:53.880Z,15.76
2023-05-14T18:19:22.195Z,15.71
2023-05-14T18:21:50.958Z,15.67
2023-05-14T18:24:19.315Z,15.61
2023-05-14T18:26:47.669Z,15.56
2023-05-14T18:29:15.926Z,15.52
2023-05-14T18:31:44.226Z,15.47
2023-05-14T18:34:14.484Z,15.43
2023-05-14T18:36:43.010Z,15.32
2023-05-14T18:39:11.462Z,15.25
2023-05-14T18:41:39.750Z,15.23
2023-05-14T18:44:08.136Z,15.18
2023-05-14T18:46:36.560Z,15.12
2023-05-14T18:49:04.828Z,15.10
2023-05-14T18:51:33.194Z,15.09
2023-05-14T18:54:01.559Z,15.10
2023-05-14T18:56:29.767Z,15.09
2023-05-14T18:58:58.343Z,15.09
2023-05-14T19:01:26.813Z,15.10
2023-05-14T19:03:55.407Z,15.09
2023-05-14T19:06:24.071Z,15.08
2023-05-14T19:08:52.509Z,15.06
2023-05-14T19:11:22.123Z,15.05
2023-05-14T19:13:50.531Z,15.03
2023-05-14T19:16:19.233Z,15.01
2023-05-14T19:18:47.557Z,14.99
2023-05-14T19:21:16.019Z,14.98
2023-05-14T19:23:44.381Z,14.96
2023-05-14T19:26:12.729Z,14.94
2023-05-14T19:28:41.129Z,14.94
2023-05-14T19:31:09.432Z,14.95
2023-05-14T19:33:37.784Z,14.95
2023-05-14T19:36:06.376Z,14.94
2023-05-14T19:38:34.832Z,14.92
2023-05-14T19:41:03.225Z,14.83
2023-05-14T19:43:31.553Z,14.76
2023-05-14T19:46:01.628Z,14.73
2023-05-14T19:48:31.309Z,14.72
2023-05-14T19:51:00.348Z,14.69
2023-05-14T19:53:31.505Z,14.65
2023-05-14T19:56:02.147Z,14.62
2023-05-14T19:58:30.494Z,14.62
2023-05-14T20:01:00.936Z,14.61
2023-05-14T20:03:30.082Z,14.62
2023-05-14T20:05:58.510Z,14.62
2023-05-14T20:08:29.225Z,14.59
2023-05-14T20:10:57.492Z,14.54
2023-05-14T20:13:25.811Z,14.49
2023-05-14T20:15:55.351Z,14.44
2023-05-14T20:18:23.903Z,14.39
2023-05-14T20:20:52.185Z,14.33
2023-05-14T20:23:20.844Z,14.28
2023-05-14T20:25:49.541Z,14.24
2023-05-14T20:28:17.729Z,14.17
2023-05-14T20:30:46.529Z,14.09
2023-05-14T20:33:15.120Z,14.03
2023-05-14T20:35:44.260Z,13.97
2023-05-14T20:38:13.407Z,13.91
2023-05-14T20:40:41.792Z,13.87
2023-05-14T20:43:10.712Z,13.81
2023-05-14T20:45:39.577Z,13.75
2023-05-14T20:48:10.356Z,13.69
2023-05-14T20:50:38.627Z,13.64
2023-05-14T20:53:06.932Z,13.59
2023-05-14T20:55:35.370Z,13.55
2023-05-14T20:58:03.713Z,13.50
2023-05-14T21:00:32.012Z,13.43
2023-05-14T21:03:00.676Z,13.39
2023-05-14T21:05:29.183Z,13.34
2023-05-14T21:07:57.489Z,13.31
2023-05-14T21:10:26.202Z,13.26
2023-05-14T21:12:54.767Z,13.22
2023-05-14T21:15:23.501Z,13.18
2023-05-14T21:17:53.021Z,13.14
2023-05-14T21:20:21.379Z,13.12
2023-05-14T21:22:49.631Z,13.10
2023-05-14T21:25:17.994Z,13.06
2023-05-14T21:27:46.355Z,13.02
2023-05-14T21:30:15.009Z,12.99
2023-05-14T21:32:43.431Z,12.96
2023-05-14T21:35:11.984Z,12.97
2023-05-14T21:37:40.709Z,12.97
2023-05-14T21:40:09.828Z,12.96
2023-05-14T21:42:39.964Z,12.94
2023-05-14T21:45:08.696Z,12.92
2023-05-14T21:47:38.316Z,12.92
2023-05-14T21:50:07.313Z,12.91
2023-05-14T21:52:35.855Z,12.90
2023-05-14T21:55:04.637Z,12.87
2023-05-14T21:57:34.610Z,12.85
2023-05-14T22:00:07.983Z,12.84
2023-05-14T22:02:36.290Z,12.82
2023-05-14T22:05:05.322Z,12.82
2023-05-14T22:07:33.515Z,12.83
2023-05-14T22:10:02.405Z,12.84
2023-05-14T22:12:30.618Z,12.84
2023-05-14T22:14:58.862Z,12.84
2023-05-14T22:17:28.334Z,12.86
2023-05-14T22:19:56.892Z,12.86
2023-05-14T22:22:25.219Z,12.86
2023-05-14T22:24:53.475Z,12.86
2023-05-14T22:27:21.711Z,12.85
2023-05-14T22:29:49.970Z,12.85
2023-05-14T22:32:18.281Z,12.85
2023-05-14T22:34:46.591Z,12.83
2023-05-14T22:37:16.439Z,12.82
2023-05-14T22:39:44.948Z,12.81
2023-05-14T22:42:13.439Z,12.79
2023-05-14T22:44:41.662Z,12.78
2023-05-14T22:47:09.964Z,12.77
2023-05-14T22:49:40.218Z,12.77
2023-05-14T22:52:09.060Z,12.77
2023-05-14T22:54:37.492Z,12.77
2023-05-14T22:57:06.852Z,12.77
2023-05-14T22:59:35.016Z,12.79
2023-05-14T23:02:03.289Z,12.79
2023-05-14T23:04:31.693Z,12.78
2023-05-14T23:07:00.000Z,12.77
2023-05-14T23:09:28.434Z,12.78
2023-05-14T23:11:56.678Z,12.81
2023-05-14T23:14:24.964Z,12.83
2023-05-14T23:16:53.410Z,12.84
2023-05-14T23:19:22.178Z,12.85
2023-05-14T23:21:51.003Z,12.85
2023-05-14T23:24:19.395Z,12.85
2023-05-14T23:26:47.711Z,12.84
2023-05-14T23:29:16.111Z,12.83
2023-05-14T23:31:44.400Z,12.81
2023-05-14T23:34:12.638Z,12.80
2023-05-14T23:36:41.035Z,12.78
2023-05-14T23:39:09.506Z,12.76
2023-05-14T23:41:37.687Z,12.72
2023-05-14T23:44:06.022Z,12.70
2023-05-14T23:46:34.561Z,12.69
2023-05-14T23:49:03.030Z,12.66
2023-05-14T23:51:31.433Z,12.64
2023-05-14T23:53:59.840Z,12.61
2023-05-14T23:56:29.400Z,12.58
2023-05-14T23:58:57.679Z,12.57
